createdAt,value
2018-11-28T00:01:04.613Z,26.97
2018-11-28T00:03:34.914Z,23.93
2018-11-28T00:06:05.349Z,27.60
2018-11-28T00:08:36.041Z,27.03
2018-11-28T00:11:06.601Z,25.60
2018-11-28T00:13:37.056Z,28.60
2018-11-28T00:16:08.336Z,18.07
2018-11-28T00:18:38.709Z,23.00
2018-11-28T00:21:09.115Z,23.90
2018-11-28T00:23:39.452Z,21.50
2018-11-28T00:26:09.781Z,21.07
2018-11-28T00:28:40.245Z,30.47
2018-11-28T00:31:10.519Z,31.10
2018-11-28T00:33:41.958Z,31.67
2018-11-28T00:36:12.401Z,18.93
2018-11-28T00:38:42.754Z,16.30
2018-11-28T00:41:13.046Z,12.07
2018-11-28T00:43:43.353Z,10.53
2018-11-28T00:46:13.696Z,11.13
2018-11-28T00:48:44.169Z,10.43
2018-11-28T00:51:14.691Z,8.37
2018-11-28T00:53:44.909Z,11.97
2018-11-28T00:56:15.378Z,9.87
2018-11-28T00:58:45.748Z,12.93
2018-11-28T01:01:16.155Z,10.33
2018-11-28T01:03:46.365Z,12.37
2018-11-28T01:06:16.776Z,9.70
2018-11-28T01:08:46.924Z,10.53
2018-11-28T01:11:17.137Z,10.23
2018-11-28T01:13:47.432Z,10.33
2018-11-28T01:16:20.575Z,11.50
2018-11-28T01:18:50.989Z,12.13
2018-11-28T01:21:21.307Z,9.20
2018-11-28T01:23:51.669Z,11.90
2018-11-28T01:26:22.162Z,9.23
2018-11-28T01:28:52.552Z,10.63
2018-11-28T01:31:23.384Z,8.90
2018-11-28T01:33:53.757Z,8.13
2018-11-28T01:36:24.154Z,8.80
2018-11-28T01:38:54.444Z,8.30
2018-11-28T01:41:24.721Z,10.93
2018-11-28T01:43:55.077Z,8.53
2018-11-28T01:46:25.469Z,7.53
2018-11-28T01:48:55.821Z,10.20
2018-11-28T01:51:26.209Z,11.23
2018-11-28T01:53:56.554Z,10.80
2018-11-28T01:56:26.849Z,9.23
2018-11-28T01:58:57.352Z,11.33
2018-11-28T02:01:27.502Z,9.20
2018-11-28T02:03:57.890Z,10.70
2018-11-28T02:06:28.165Z,9.53
2018-11-28T02:08:58.475Z,13.33
2018-11-28T02:11:28.801Z,12.90
2018-11-28T02:13:59.500Z,16.33
2018-11-28T02:16:29.824Z,9.83
2018-11-28T02:19:00.079Z,10.07
2018-11-28T02:21:30.549Z,7.67
2018-11-28T02:24:00.848Z,9.60
2018-11-28T02:26:31.270Z,14.53
2018-11-28T02:29:01.476Z,8.40
2018-11-28T02:31:31.855Z,11.97
2018-11-28T02:34:02.285Z,11.17
2018-11-28T02:36:32.516Z,11.50
2018-11-28T02:39:02.910Z,9.77
2018-11-28T02:41:33.204Z,9.70
2018-11-28T02:44:03.686Z,11.20
2018-11-28T02:46:33.918Z,8.53
2018-11-28T02:49:04.339Z,12.47
2018-11-28T02:51:34.659Z,10.77
2018-11-28T02:54:05.277Z,8.40
2018-11-28T02:56:35.682Z,11.27
2018-11-28T02:59:05.880Z,10.07
2018-11-28T03:01:36.265Z,8.47
2018-11-28T03:04:06.814Z,10.67
2018-11-28T03:06:37.270Z,7.83
2018-11-28T03:09:09.602Z,11.83
2018-11-28T03:11:39.961Z,8.10
2018-11-28T03:14:10.231Z,12.47
2018-11-28T03:16:40.541Z,8.43
2018-11-28T03:19:10.888Z,9.23
2018-11-28T03:21:41.318Z,11.17
2018-11-28T03:24:11.624Z,7.60
2018-11-28T03:26:41.913Z,9.20
2018-11-28T03:29:12.309Z,11.37
2018-11-28T03:31:42.690Z,9.17
2018-11-28T03:34:13.953Z,9.50
2018-11-28T03:36:44.282Z,9.17
2018-11-28T03:39:14.734Z,7.50
2018-11-28T03:41:44.876Z,9.37
2018-11-28T03:44:15.247Z,8.70
2018-11-28T03:46:45.654Z,9.77
2018-11-28T03:49:16.119Z,10.43
2018-11-28T03:51:46.384Z,12.23
2018-11-28T03:54:16.631Z,6.23
2018-11-28T03:56:46.958Z,9.50
2018-11-28T03:59:17.434Z,8.87
2018-11-28T04:01:47.694Z,5.97
2018-11-28T04:04:18.713Z,11.27
2018-11-28T04:06:49.056Z,7.27
2018-11-28T04:09:19.328Z,8.00
2018-11-28T04:11:49.479Z,11.27
2018-11-28T04:14:19.742Z,9.33
2018-11-28T04:16:50.065Z,9.73
2018-11-28T04:19:20.317Z,7.73
2018-11-28T04:21:50.544Z,9.17
2018-11-28T04:24:20.907Z,7.53
2018-11-28T04:26:51.072Z,11.33
2018-11-28T04:29:21.418Z,6.37
2018-11-28T04:31:51.576Z,8.17
2018-11-28T04:34:21.950Z,9.50
2018-11-28T04:36:52.431Z,9.00
2018-11-28T04:39:22.614Z,8.63
2018-11-28T04:41:52.952Z,8.37
2018-11-28T04:44:23.270Z,7.20
2018-11-28T04:46:53.458Z,9.37
2018-11-28T04:49:23.776Z,8.23
2018-11-28T04:51:54.140Z,7.87
2018-11-28T04:54:24.554Z,7.70
2018-11-28T04:56:54.874Z,7.57
2018-11-28T04:59:25.054Z,7.20
2018-11-28T05:01:55.311Z,7.07
2018-11-28T05:04:25.741Z,7.57
2018-11-28T05:07:28.871Z,6.10
2018-11-28T05:09:59.982Z,7.43
2018-11-28T05:12:30.360Z,7.40
2018-11-28T05:15:00.537Z,9.43
2018-11-28T05:17:30.844Z,9.80
2018-11-28T05:20:01.290Z,7.70
2018-11-28T05:22:31.700Z,9.87
2018-11-28T05:25:01.899Z,5.93
2018-11-28T05:27:32.217Z,6.60
2018-11-28T05:30:02.825Z,6.97
2018-11-28T05:32:33.200Z,7.93
2018-11-28T05:35:03.545Z,6.10
2018-11-28T05:37:33.853Z,6.37
2018-11-28T05:40:04.252Z,6.93
2018-11-28T05:42:34.341Z,8.70
2018-11-28T05:45:04.858Z,9.87
2018-11-28T05:47:35.145Z,12.20
2018-11-28T05:50:09.313Z,6.83
2018-11-28T05:52:39.695Z,11.03
2018-11-28T05:55:12.501Z,7.17
2018-11-28T05:57:44.014Z,7.80
2018-11-28T06:00:20.874Z,7.87
2018-11-28T06:02:51.333Z,8.57
2018-11-28T06:05:21.598Z,7.83
2018-11-28T06:07:51.878Z,8.20
2018-11-28T06:10:22.238Z,30.83
2018-11-28T06:12:52.634Z,34.40
2018-11-28T06:15:22.876Z,40.93
2018-11-28T06:17:53.201Z,44.20
2018-11-28T06:20:23.652Z,43.27
2018-11-28T06:22:53.800Z,44.37
2018-11-28T06:25:24.287Z,39.13
2018-11-28T06:27:54.557Z,36.47
2018-11-28T06:30:25.036Z,37.30
2018-11-28T06:32:55.202Z,39.70
2018-11-28T06:35:25.593Z,41.33
2018-11-28T06:37:56.501Z,37.80
2018-11-28T06:40:27.057Z,36.80
2018-11-28T06:42:57.337Z,37.27
2018-11-28T06:45:27.475Z,36.13
2018-11-28T06:47:57.714Z,38.97
2018-11-28T06:50:28.076Z,34.63
2018-11-28T06:52:58.663Z,37.90
2018-11-28T06:55:29.317Z,38.57
2018-11-28T06:57:59.520Z,40.40
2018-11-28T07:00:29.857Z,37.50
2018-11-28T07:03:00.195Z,37.90
2018-11-28T07:05:30.496Z,40.50
2018-11-28T07:08:00.786Z,39.87
2018-11-28T07:10:31.034Z,43.27
2018-11-28T07:13:01.514Z,43.90
2018-11-28T07:15:31.816Z,46.07
2018-11-28T07:18:18.495Z,37.83
2018-11-28T07:20:48.738Z,43.70
2018-11-28T07:23:19.175Z,39.90
2018-11-28T07:25:49.599Z,39.77
2018-11-28T07:28:19.854Z,44.07
2018-11-28T07:30:50.015Z,41.93
2018-11-28T07:33:25.245Z,40.00
2018-11-28T07:35:55.568Z,42.53
2018-11-28T07:38:26.032Z,39.10
2018-11-28T07:40:56.146Z,39.90
2018-11-28T07:43:27.009Z,37.73
2018-11-28T07:45:57.310Z,39.30
2018-11-28T07:48:27.491Z,38.70
2018-11-28T07:50:57.871Z,40.17
2018-11-28T07:53:28.353Z,40.00
2018-11-28T07:55:58.803Z,38.87
2018-11-28T07:58:29.038Z,42.50
2018-11-28T08:00:59.326Z,41.80
2018-11-28T08:03:29.754Z,40.50
2018-11-28T08:06:00.194Z,39.70
2018-11-28T08:08:34.506Z,42.60
2018-11-28T08:11:05.000Z,42.50
2018-11-28T08:13:36.266Z,40.57
2018-11-28T08:16:06.674Z,36.20
2018-11-28T08:18:37.020Z,36.70
2018-11-28T08:21:07.981Z,42.70
2018-11-28T08:23:38.384Z,36.47
2018-11-28T08:26:08.860Z,41.63
2018-11-28T08:28:39.137Z,35.17
2018-11-28T08:31:10.057Z,41.60
2018-11-28T08:33:39.889Z,37.67
2018-11-28T08:36:10.394Z,35.90
2018-11-28T08:38:40.760Z,42.43
2018-11-28T08:41:11.089Z,38.33
2018-11-28T08:43:41.374Z,39.67
2018-11-28T08:46:11.756Z,42.50
2018-11-28T08:48:41.997Z,41.97
2018-11-28T08:51:12.361Z,37.53
2018-11-28T08:53:42.803Z,46.23
2018-11-28T08:56:12.983Z,36.83
2018-11-28T08:58:43.154Z,35.70
2018-11-28T09:01:13.333Z,49.30
2018-11-28T09:03:43.565Z,36.53
2018-11-28T09:06:14.031Z,31.90
2018-11-28T09:08:44.155Z,37.67
2018-11-28T09:11:14.461Z,33.43
2018-11-28T09:13:44.833Z,37.27
2018-11-28T09:16:15.143Z,35.90
2018-11-28T09:18:45.377Z,30.57
2018-11-28T09:21:18.579Z,32.27
2018-11-28T09:23:48.858Z,32.30
2018-11-28T09:26:19.062Z,37.03
2018-11-28T09:28:49.848Z,33.70
2018-11-28T09:31:20.186Z,36.40
2018-11-28T09:33:50.457Z,37.80
2018-11-28T09:36:20.690Z,33.83
2018-11-28T09:38:50.935Z,28.20
2018-11-28T09:41:21.353Z,34.57
2018-11-28T09:43:51.761Z,29.60
2018-11-28T09:46:21.948Z,34.67
2018-11-28T09:48:52.338Z,35.77
2018-11-28T09:51:22.745Z,30.70
2018-11-28T09:53:53.261Z,35.33
2018-11-28T09:56:23.665Z,32.20
2018-11-28T09:58:54.031Z,29.43
2018-11-28T10:01:24.373Z,31.30
2018-11-28T10:03:54.755Z,30.60
2018-11-28T10:06:25.049Z,34.20
2018-11-28T10:08:55.377Z,27.90
2018-11-28T10:11:25.644Z,30.77
2018-11-28T10:13:56.057Z,28.23
2018-11-28T10:16:26.333Z,26.57
2018-11-28T10:18:56.698Z,27.90
2018-11-28T10:21:27.173Z,32.10
2018-11-28T10:23:57.609Z,29.13
2018-11-28T10:26:27.919Z,26.53
2018-11-28T10:28:58.324Z,23.13
2018-11-28T10:31:28.646Z,21.97
2018-11-28T10:33:59.086Z,25.63
2018-11-28T10:36:29.535Z,19.10
2018-11-28T10:38:59.764Z,26.07
2018-11-28T10:41:30.128Z,22.90
2018-11-28T10:44:00.685Z,19.90
2018-11-28T10:46:31.064Z,20.80
2018-11-28T10:49:01.309Z,22.63
2018-11-28T10:51:31.572Z,28.83
2018-11-28T10:54:01.914Z,19.83
2018-11-28T10:56:32.226Z,19.37
2018-11-28T10:59:02.485Z,20.10
2018-11-28T11:01:32.812Z,22.27
2018-11-28T11:04:08.332Z,20.50
2018-11-28T11:06:43.490Z,19.20
2018-11-28T11:09:18.734Z,19.67
2018-11-28T11:11:53.949Z,20.57
2018-11-28T11:14:29.269Z,19.33
2018-11-28T11:16:59.585Z,20.60
2018-11-28T11:19:30.077Z,19.87
2018-11-28T11:22:00.467Z,19.80
2018-11-28T11:24:30.894Z,20.17
2018-11-28T11:27:01.217Z,22.03
2018-11-28T11:29:31.370Z,20.67
2018-11-28T11:32:01.790Z,18.80
2018-11-28T11:34:32.202Z,21.80
2018-11-28T11:37:02.526Z,20.50
2018-11-28T11:39:32.788Z,20.23
2018-11-28T11:42:02.979Z,20.57
2018-11-28T11:44:33.308Z,19.23
2018-11-28T11:47:03.623Z,20.40
2018-11-28T11:49:34.031Z,22.03
2018-11-28T11:52:04.426Z,19.13
2018-11-28T11:54:34.619Z,22.80
2018-11-28T11:57:05.039Z,22.00
2018-11-28T11:59:35.421Z,20.33
2018-11-28T12:02:05.816Z,22.13
2018-11-28T12:04:36.098Z,20.83
2018-11-28T12:07:06.475Z,20.23
2018-11-28T12:09:36.902Z,20.57
2018-11-28T12:12:07.375Z,20.53
2018-11-28T12:14:37.634Z,20.63
2018-11-28T12:17:08.173Z,22.37
2018-11-28T12:19:38.718Z,20.50
2018-11-28T12:22:09.125Z,20.57
2018-11-28T12:24:39.400Z,20.70
2018-11-28T12:27:09.725Z,20.50
2018-11-28T12:29:40.148Z,22.23
2018-11-28T12:32:10.485Z,20.97
2018-11-28T12:34:40.666Z,20.37
2018-11-28T12:37:11.000Z,20.13
2018-11-28T12:39:41.433Z,22.87
2018-11-28T12:42:12.045Z,19.77
2018-11-28T12:44:42.498Z,22.07
2018-11-28T12:47:12.696Z,20.40
2018-11-28T12:49:43.061Z,19.83
2018-11-28T12:52:13.372Z,19.90
2018-11-28T12:54:43.881Z,18.80
2018-11-28T12:57:14.070Z,19.83
2018-11-28T12:59:44.531Z,21.50
2018-11-28T13:02:15.021Z,20.40
2018-11-28T13:04:45.500Z,19.33
2018-11-28T13:07:15.797Z,20.23
2018-11-28T13:09:46.095Z,18.67
2018-11-28T13:12:16.349Z,18.03
2018-11-28T13:14:46.822Z,21.80
2018-11-28T13:17:17.088Z,20.43
2018-11-28T13:19:47.434Z,19.50
2018-11-28T13:22:17.889Z,17.97
2018-11-28T13:24:48.162Z,17.80
2018-11-28T13:27:18.512Z,17.83
2018-11-28T13:29:48.694Z,18.03
2018-11-28T13:32:19.062Z,19.63
2018-11-28T13:34:49.300Z,17.87
2018-11-28T13:37:19.505Z,18.37
2018-11-28T13:39:49.769Z,21.83
2018-11-28T13:42:19.856Z,20.90
2018-11-28T13:44:50.180Z,18.57
2018-11-28T13:47:20.513Z,20.70
2018-11-28T13:49:50.841Z,19.87
2018-11-28T13:52:21.070Z,19.67
2018-11-28T13:55:37.844Z,19.93
2018-11-28T13:57:22.189Z,18.07
2018-11-28T13:59:52.107Z,18.63
2018-11-28T14:02:22.429Z,19.90
2018-11-28T14:04:52.861Z,17.73
2018-11-28T14:07:23.503Z,18.20
2018-11-28T14:09:53.825Z,20.80
2018-11-28T14:12:24.116Z,18.37
2018-11-28T14:14:54.522Z,20.73
2018-11-28T14:17:24.807Z,20.27
2018-11-28T14:19:55.258Z,19.70
2018-11-28T14:22:25.433Z,21.00
2018-11-28T14:24:55.749Z,17.17
2018-11-28T14:27:26.044Z,19.23
2018-11-28T14:29:56.300Z,19.83
2018-11-28T14:32:26.731Z,18.40
2018-11-28T14:34:57.189Z,21.97
2018-11-28T14:37:27.999Z,23.57
2018-11-28T14:39:58.297Z,23.13
2018-11-28T14:42:28.609Z,19.20
2018-11-28T14:44:58.892Z,17.80
2018-11-28T14:47:29.354Z,18.57
2018-11-28T14:50:00.594Z,24.33
2018-11-28T14:52:30.896Z,18.83
2018-11-28T14:55:01.140Z,17.73
2018-11-28T14:57:31.476Z,22.37
2018-11-28T15:00:01.743Z,19.77
2018-11-28T15:02:32.120Z,23.37
2018-11-28T15:05:02.451Z,19.63
2018-11-28T15:07:33.329Z,23.40
2018-11-28T15:10:03.704Z,32.57
2018-11-28T15:12:33.882Z,21.73
2018-11-28T15:15:04.387Z,19.63
2018-11-28T15:17:34.872Z,26.93
2018-11-28T15:20:06.224Z,26.77
2018-11-28T15:22:36.518Z,22.13
2018-11-28T15:25:09.746Z,21.43
2018-11-28T15:27:40.005Z,18.77
2018-11-28T15:30:10.737Z,23.20
2018-11-28T15:32:41.028Z,22.00
2018-11-28T15:35:11.428Z,23.70
2018-11-28T15:37:41.711Z,24.40
2018-11-28T15:40:12.103Z,18.93
2018-11-28T15:42:42.660Z,24.20
2018-11-28T15:45:12.902Z,21.57
2018-11-28T15:47:43.272Z,24.03
2018-11-28T15:50:13.562Z,24.00
2018-11-28T15:52:44.037Z,24.73
2018-11-28T15:55:14.702Z,24.17
2018-11-28T15:57:44.930Z,18.67
2018-11-28T16:00:24.968Z,24.37
2018-11-28T16:02:55.668Z,22.53
2018-11-28T16:05:25.992Z,25.90
2018-11-28T16:07:56.429Z,23.60
2018-11-28T16:10:34.146Z,29.43
2018-11-28T16:13:04.542Z,23.40
2018-11-28T16:15:39.811Z,25.47
2018-11-28T16:18:10.202Z,22.87
2018-11-28T16:20:40.909Z,26.03
2018-11-28T16:23:11.345Z,25.33
2018-11-28T16:25:41.696Z,27.77
2018-11-28T16:28:12.599Z,27.33
2018-11-28T16:30:42.577Z,24.97
2018-11-28T16:33:12.877Z,28.20
2018-11-28T16:35:43.272Z,27.00
2018-11-28T16:38:13.606Z,26.40
2018-11-28T16:40:43.926Z,28.90
2018-11-28T16:43:14.320Z,29.23
2018-11-28T16:45:44.782Z,30.40
2018-11-28T16:48:15.231Z,29.87
2018-11-28T16:50:45.477Z,22.73
2018-11-28T16:53:15.769Z,28.13
2018-11-28T16:55:46.276Z,29.30
2018-11-28T16:58:16.471Z,31.20
2018-11-28T17:00:47.003Z,26.50
2018-11-28T17:03:17.371Z,31.33
2018-11-28T17:05:47.798Z,32.83
2018-11-28T17:08:18.085Z,28.33
2018-11-28T17:10:48.466Z,29.93
2018-11-28T17:13:18.774Z,27.93
2018-11-28T17:15:49.157Z,35.57
2018-11-28T17:18:19.448Z,34.63
2018-11-28T17:20:49.744Z,31.50
2018-11-28T17:23:19.925Z,30.37
2018-11-28T17:25:50.322Z,27.17
2018-11-28T17:28:20.534Z,27.90
2018-11-28T17:30:51.050Z,25.20
2018-11-28T17:33:21.250Z,19.03
2018-11-28T17:35:51.565Z,19.83
2018-11-28T17:38:21.959Z,16.60
2018-11-28T17:40:52.273Z,14.33
2018-11-28T17:43:22.593Z,14.00
2018-11-28T17:45:53.104Z,10.60
2018-11-28T17:48:23.376Z,10.53
2018-11-28T17:50:53.694Z,14.63
2018-11-28T17:53:23.869Z,8.43
2018-11-28T17:55:56.250Z,7.27
2018-11-28T17:58:26.421Z,10.10
2018-11-28T18:00:56.789Z,11.90
2018-11-28T18:03:27.080Z,11.67
2018-11-28T18:05:57.524Z,9.60
2018-11-28T18:08:27.852Z,11.77
2018-11-28T18:11:10.465Z,6.83
2018-11-28T18:13:40.710Z,8.37
2018-11-28T18:16:11.899Z,8.57
2018-11-28T18:18:41.508Z,9.13
2018-11-28T18:21:11.897Z,9.03
2018-11-28T18:23:42.105Z,8.40
2018-11-28T18:26:14.765Z,9.70
2018-11-28T18:28:45.117Z,7.77
2018-11-28T18:31:15.412Z,9.40
2018-11-28T18:33:45.614Z,10.70
2018-11-28T18:36:15.876Z,9.20
2018-11-28T18:38:46.478Z,12.73
2018-11-28T18:41:16.657Z,12.53
2018-11-28T18:43:47.073Z,13.13
2018-11-28T18:46:20.302Z,17.50
2018-11-28T18:48:50.657Z,18.13
2018-11-28T18:51:20.943Z,16.80
2018-11-28T18:53:51.130Z,22.23
2018-11-28T18:56:21.375Z,12.90
2018-11-28T18:58:52.001Z,13.60
2018-11-28T19:01:22.200Z,12.00
2018-11-28T19:03:52.714Z,12.17
2018-11-28T19:06:23.039Z,16.53
2018-11-28T19:08:53.336Z,13.60
2018-11-28T19:11:23.701Z,14.77
2018-11-28T19:13:54.003Z,12.53
2018-11-28T19:16:24.242Z,16.50
2018-11-28T19:18:54.933Z,10.67
2018-11-28T19:21:25.146Z,9.27
2018-11-28T19:23:55.474Z,11.10
2018-11-28T19:26:25.836Z,13.00
2018-11-28T19:28:56.100Z,11.77
2018-11-28T19:31:26.205Z,8.13
2018-11-28T19:33:56.630Z,8.50
2018-11-28T19:36:26.702Z,14.00
2018-11-28T19:38:57.233Z,11.87
2018-11-28T19:41:28.285Z,14.43
2018-11-28T19:43:58.753Z,16.50
2018-11-28T19:46:28.988Z,14.53
2018-11-28T19:48:59.434Z,10.33
2018-11-28T19:51:29.609Z,13.90
2018-11-28T19:53:59.894Z,13.53
2018-11-28T19:56:30.206Z,18.50
2018-11-28T19:59:00.592Z,10.07
2018-11-28T20:01:30.840Z,12.77
2018-11-28T20:04:01.385Z,8.60
2018-11-28T20:06:31.869Z,10.77
2018-11-28T20:09:02.185Z,15.23
2018-11-28T20:11:32.713Z,10.63
2018-11-28T20:14:03.162Z,13.30
2018-11-28T20:16:33.404Z,13.30
2018-11-28T20:19:03.919Z,8.93
2018-11-28T20:21:34.235Z,15.57
2018-11-28T20:24:04.558Z,11.57
2018-11-28T20:26:35.025Z,11.80
2018-11-28T20:29:05.426Z,10.63
2018-11-28T20:31:35.779Z,11.50
2018-11-28T20:34:06.370Z,12.63
2018-11-28T20:36:36.797Z,10.63
2018-11-28T20:39:10.003Z,14.00
2018-11-28T20:41:40.484Z,13.07
2018-11-28T20:44:10.781Z,12.03
2018-11-28T20:46:41.241Z,17.40
2018-11-28T20:49:11.575Z,11.50
2018-11-28T20:51:41.881Z,29.60
2018-11-28T20:54:12.817Z,18.00
2018-11-28T20:56:43.218Z,12.50
2018-11-28T20:59:13.612Z,11.50
2018-11-28T21:01:43.844Z,13.63
2018-11-28T21:04:14.261Z,12.50
2018-11-28T21:06:49.897Z,15.97
2018-11-28T21:09:20.193Z,13.10
2018-11-28T21:11:50.431Z,13.00
2018-11-28T21:14:20.746Z,14.27
2018-11-28T21:16:51.133Z,13.57
2018-11-28T21:19:21.244Z,14.63
2018-11-28T21:21:51.652Z,15.57
2018-11-28T21:24:21.978Z,14.13
2018-11-28T21:26:52.360Z,12.90
2018-11-28T21:29:22.773Z,14.73
2018-11-28T21:31:53.136Z,17.60
2018-11-28T21:34:23.486Z,15.27
2018-11-28T21:36:55.012Z,13.97
2018-11-28T21:39:25.465Z,11.80
2018-11-28T21:41:55.735Z,14.83
2018-11-28T21:44:26.188Z,15.07
2018-11-28T21:46:56.617Z,15.23
2018-11-28T21:49:26.840Z,17.73
2018-11-28T21:51:57.050Z,14.60
2018-11-28T21:54:27.492Z,12.10
2018-11-28T21:56:57.686Z,13.83
2018-11-28T21:59:28.048Z,9.33
2018-11-28T22:01:58.561Z,15.00
2018-11-28T22:04:28.869Z,12.60
2018-11-28T22:06:59.227Z,16.90
2018-11-28T22:09:33.532Z,12.43
2018-11-28T22:12:03.100Z,15.20
2018-11-28T22:14:33.500Z,17.10
2018-11-28T22:17:03.904Z,23.83
2018-11-28T22:19:34.120Z,15.57
2018-11-28T22:22:04.428Z,15.87
2018-11-28T22:24:34.993Z,15.53
2018-11-28T22:27:05.284Z,17.90
2018-11-28T22:29:35.622Z,13.47
2018-11-28T22:32:05.811Z,16.60
2018-11-28T22:34:36.208Z,14.57
2018-11-28T22:37:06.470Z,18.33
2018-11-28T22:39:36.880Z,18.63
2018-11-28T22:42:07.264Z,18.70
2018-11-28T22:44:37.580Z,16.77
2018-11-28T22:47:07.907Z,17.87
2018-11-28T22:49:38.220Z,14.23
2018-11-28T22:52:08.645Z,18.07
2018-11-28T22:54:39.018Z,15.50
2018-11-28T22:57:09.401Z,15.37
2018-11-28T22:59:39.769Z,20.53
2018-11-28T23:03:13.189Z,15.50
2018-11-28T23:05:46.169Z,18.53
2018-11-28T23:08:18.001Z,16.30
2018-11-28T23:10:48.625Z,26.27
2018-11-28T23:13:22.936Z,21.50
2018-11-28T23:15:53.305Z,18.60
2018-11-28T23:18:23.671Z,16.20
2018-11-28T23:20:53.992Z,16.47
2018-11-28T23:23:24.343Z,19.00
2018-11-28T23:25:54.512Z,18.00
2018-11-28T23:28:24.924Z,16.10
2018-11-28T23:30:55.205Z,16.57
2018-11-28T23:33:25.518Z,14.37
2018-11-28T23:35:55.844Z,14.67
2018-11-28T23:38:26.186Z,19.03
2018-11-28T23:40:56.615Z,17.57
2018-11-28T23:43:26.857Z,17.27
2018-11-28T23:45:57.259Z,20.10
2018-11-28T23:48:27.625Z,16.48
2018-11-28T23:50:57.801Z,15.83
2018-11-28T23:53:28.136Z,17.40
2018-11-28T23:55:58.505Z,17.07
2018-11-28T23:58:28.771Z,15.60
